Time;durP1;ratioP1;P1;durP2;ratioP2;P2;SDS_P1;SDS_P2;PMS_P1;PMS_P2;Temp;Humidity;BMP_temperature;BMP_pressure;BME280_temperature;BME280_humidity;BME280_pressure;Samples;Min_cycle;Max_cycle;Signal;HPM_P1;HPM_P2
2022/02/06 00:02:20;;;;;;;19.90;9.60;;;;;;;-0.41;69.27;100988.38;1469323;88;21588;-93
2022/02/06 00:04:43;;;;;;;15.80;7.87;;;;;;;-0.42;69.28;100981.50;1467222;88;21537;-92
2022/02/06 00:07:11;;;;;;;19.23;8.10;;;;;;;-0.40;69.26;100977.06;1458554;88;21988;-93
2022/02/06 00:09:39;;;;;;;14.45;6.85;;;;;;;-0.40;69.19;100979.66;1466905;88;21567;-94
2022/02/06 00:12:09;;;;;;;15.60;6.25;;;;;;;-0.38;69.17;100978.69;1459088;88;21538;-94
2022/02/06 00:14:38;;;;;;;14.63;7.05;;;;;;;-0.36;69.11;100981.24;1467352;88;21442;-93
2022/02/06 00:17:08;;;;;;;21.70;9.18;;;;;;;-0.35;68.96;100971.22;1471379;88;21382;-95
2022/02/06 00:19:42;;;;;;;24.35;11.28;;;;;;;-0.32;69.08;100976.29;1414419;92;21906;-93
2022/02/06 00:22:13;;;;;;;25.25;11.15;;;;;;;-0.30;68.91;100964.08;1427534;92;22406;-95
2022/02/06 00:24:49;;;;;;;13.90;5.75;;;;;;;-0.31;68.71;100958.03;1436840;90;21391;-94
2022/02/06 00:27:23;;;;;;;25.97;11.95;;;;;;;-0.28;68.68;100959.66;1442571;90;21376;-96
2022/02/06 00:29:58;;;;;;;19.10;8.05;;;;;;;-0.28;68.53;100966.16;1423876;91;21435;-95
2022/02/06 00:32:31;;;;;;;23.47;10.58;;;;;;;-0.31;68.26;100960.62;1441231;89;21391;-96
2022/02/06 00:41:11;;;;;;;24.85;12.43;;;;;;;-0.24;68.13;100961.20;1405028;92;21406;-90
2022/02/06 00:43:18;;;;;;;34.63;14.83;;;;;;;-0.22;67.87;100969.80;1416053;86;21515;-95
2022/02/06 00:45:45;;;;;;;38.42;15.05;;;;;;;-0.28;67.69;100970.06;1419531;89;22277;-94
2022/02/06 00:48:13;;;;;;;32.60;12.25;;;;;;;-0.35;67.74;100965.55;1445369;89;21840;-96
2022/02/06 00:50:46;;;;;;;25.02;9.33;;;;;;;-0.40;67.82;100958.42;1475365;87;21364;-94
2022/02/06 00:53:16;;;;;;;29.70;11.28;;;;;;;-0.43;67.92;100952.48;1507410;86;21338;-95
2022/02/06 00:55:38;;;;;;;29.32;9.73;;;;;;;-0.48;68.08;100956.59;1507210;86;21522;-94
2022/02/06 00:58:09;;;;;;;17.05;8.03;;;;;;;-0.50;68.06;100963.14;1494687;86;21285;-94
2022/02/06 01:00:38;;;;;;;25.88;9.60;;;;;;;-0.51;68.09;100967.12;1508566;86;21476;-96
2022/02/06 01:03:07;;;;;;;22.27;8.33;;;;;;;-0.57;68.30;100964.78;1485133;86;21300;-96
2022/02/06 01:05:34;;;;;;;32.42;12.75;;;;;;;-0.63;68.26;100959.81;1507963;86;21417;-96
2022/02/06 01:08:03;;;;;;;32.05;11.50;;;;;;;-0.70;68.55;100957.47;1524280;86;21425;-95
2022/02/06 01:10:30;;;;;;;18.62;8.80;;;;;;;-0.76;68.69;100952.98;1506399;86;21366;-95
2022/02/06 01:13:11;;;;;;;21.12;9.65;;;;;;;-0.81;68.78;100948.42;1522861;86;21374;-95
2022/02/06 01:15:32;;;;;;;19.25;9.30;;;;;;;-0.86;68.97;100949.92;1494776;86;21417;-96
2022/02/06 01:18:09;;;;;;;15.32;7.97;;;;;;;-0.88;69.04;100939.20;1505532;86;21366;-94
2022/02/06 01:20:36;;;;;;;21.93;7.90;;;;;;;-0.89;68.95;100936.19;1502954;86;22862;-93
2022/02/06 01:25:57;;;;;;;23.30;10.23;;;;;;;-0.92;69.08;100931.52;1420842;91;21418;-96
2022/02/06 01:28:28;;;;;;;29.65;11.10;;;;;;;-0.94;69.18;100929.89;1421656;89;21396;-95
2022/02/06 01:31:01;;;;;;;21.23;9.93;;;;;;;-0.97;69.30;100935.22;1422276;87;21542;-96
2022/02/06 01:33:32;;;;;;;28.57;9.80;;;;;;;-1.00;69.29;100934.88;1377962;88;21537;31
2022/02/06 01:39:09;;;;;;;17.23;7.80;;;;;;;-1.08;69.49;100923.94;1398911;85;21557;31
2022/02/06 01:41:21;;;;;;;16.70;7.10;;;;;;;-1.12;69.48;100925.41;1399042;85;23411;31
2022/02/06 01:43:59;;;;;;;13.55;7.40;;;;;;;-1.14;69.49;100920.30;1394192;85;25579;31
2022/02/06 02:00:32;;;;;;;28.20;10.93;;;;;;;-1.26;70.06;100915.59;1460399;89;22280;-92
2022/02/06 02:03:00;;;;;;;24.12;9.85;;;;;;;-1.29;69.81;100908.77;1451560;89;23193;-91
2022/02/06 02:19:07;;;;;;;21.75;9.33;;;;;;;-1.26;69.85;100901.31;1463553;88;21563;-91
2022/02/06 02:27:03;;;;;;;15.43;5.12;;;;;;;-1.28;69.82;100899.22;1406883;92;21433;-90
2022/02/06 02:50:47;;;;;;;8.93;4.05;;;;;;;-1.45;70.78;100858.33;1433990;90;21716;-93
2022/02/06 02:53:22;;;;;;;10.10;4.58;;;;;;;-1.51;70.92;100859.41;1446883;90;21493;-90
2022/02/06 03:01:07;;;;;;;8.68;4.00;;;;;;;-1.59;71.64;100859.70;1443634;85;22560;-91
2022/02/06 03:03:35;;;;;;;8.20;3.90;;;;;;;-1.58;71.50;100872.25;1452721;90;21661;-91
2022/02/06 03:06:02;;;;;;;8.13;3.30;;;;;;;-1.59;71.65;100870.55;1447588;90;21875;-93
2022/02/06 03:13:38;;;;;;;13.32;5.53;;;;;;;-1.57;71.72;100876.53;1420580;85;21644;-93
2022/02/06 03:18:30;;;;;;;15.88;6.22;;;;;;;-1.50;71.68;100879.27;1445344;89;22295;-94
2022/02/06 03:20:55;;;;;;;9.73;3.85;;;;;;;-1.50;71.43;100871.48;1449125;90;21453;-94
2022/02/06 03:23:24;;;;;;;11.65;4.05;;;;;;;-1.47;71.32;100877.84;1432713;90;21475;-94
2022/02/06 03:25:53;;;;;;;8.20;3.80;;;;;;;-1.47;71.39;100878.30;1448415;90;21497;-93
2022/02/06 03:28:23;;;;;;;18.70;5.00;;;;;;;-1.47;71.23;100875.25;1446693;89;21438;-95
2022/02/06 03:30:52;;;;;;;6.83;3.55;;;;;;;-1.47;71.22;100875.71;1445810;90;22596;-94
2022/02/06 03:33:20;;;;;;;8.58;5.08;;;;;;;-1.46;71.22;100876.12;1441459;89;21467;-93
2022/02/06 03:35:48;;;;;;;14.23;5.12;;;;;;;-1.46;71.29;100874.37;1449570;89;21370;-93
2022/02/06 03:38:15;;;;;;;11.93;4.65;;;;;;;-1.46;71.35;100878.27;1428581;90;21334;-92
2022/02/06 03:40:51;;;;;;;7.83;3.52;;;;;;;-1.46;71.17;100874.37;1424115;90;21489;-94
2022/02/06 03:43:27;;;;;;;8.25;4.97;;;;;;;-1.51;71.36;100872.39;1442765;90;21511;-94
2022/02/06 03:48:21;;;;;;;7.87;3.85;;;;;;;-1.54;71.22;100868.63;1451546;88;21386;-93
2022/02/06 03:50:49;;;;;;;11.12;3.95;;;;;;;-1.58;71.42;100865.77;1439212;90;21555;-94
2022/02/06 03:53:15;;;;;;;9.48;4.55;;;;;;;-1.63;71.53;100863.34;1436516;90;21387;-93
2022/02/06 03:55:42;;;;;;;8.68;4.58;;;;;;;-1.67;72.18;100858.31;1447507;90;21445;-91
2022/02/06 03:58:10;;;;;;;9.55;4.60;;;;;;;-1.67;72.02;100860.91;1454083;90;22265;-94
2022/02/06 04:00:37;;;;;;;10.82;4.95;;;;;;;-1.69;71.89;100863.58;1443218;90;21327;-94
2022/02/06 04:03:05;;;;;;;8.53;4.55;;;;;;;-1.71;72.03;100861.94;1445795;90;21869;-94
2022/02/06 04:05:32;;;;;;;12.10;4.50;;;;;;;-1.72;72.15;100849.88;1443319;90;21445;-94
2022/02/06 04:08:00;;;;;;;7.35;4.20;;;;;;;-1.75;72.23;100852.59;1447545;90;22333;-92
2022/02/06 04:10:34;;;;;;;11.43;4.70;;;;;;;-1.77;72.61;100860.88;1444749;89;22250;-93
2022/02/06 04:12:58;;;;;;;8.48;4.90;;;;;;;-1.78;72.41;100856.58;1446178;90;21400;-91
2022/02/06 04:15:35;;;;;;;14.78;5.28;;;;;;;-1.79;72.43;100849.70;1460593;89;21466;-91
2022/02/06 04:18:10;;;;;;;10.15;4.97;;;;;;;-1.80;72.22;100850.63;1455010;89;23439;-90
2022/02/06 04:20:26;;;;;;;9.03;4.00;;;;;;;-1.84;72.68;100848.60;1451761;89;21385;-91
2022/02/06 04:22:53;;;;;;;6.83;3.83;;;;;;;-1.91;72.64;100850.56;1435174;89;21430;-92
2022/02/06 04:25:20;;;;;;;10.78;5.10;;;;;;;-1.96;72.96;100849.88;1448181;89;21348;-91
2022/02/06 04:27:47;;;;;;;11.85;5.42;;;;;;;-2.01;73.25;100844.05;1453826;89;21437;-90
2022/02/06 04:30:14;;;;;;;9.33;4.40;;;;;;;-2.03;73.34;100839.36;1446398;89;21355;-92
2022/02/06 04:32:41;;;;;;;13.03;5.65;;;;;;;-2.08;73.66;100835.62;1436556;89;22345;-91
2022/02/06 04:35:14;;;;;;;11.50;5.00;;;;;;;-2.09;73.92;100837.00;1454132;89;22496;-94
2022/02/06 04:38:01;;;;;;;13.30;6.00;;;;;;;-2.09;74.43;100837.84;1455856;89;21562;-93
2022/02/06 04:53:40;;;;;;;9.40;3.80;;;;;;;-2.13;74.88;100817.25;1449837;89;21496;-88
2022/02/06 05:10:54;;;;;;;8.88;4.28;;;;;;;-2.10;74.59;100808.92;1445944;89;21356;-88
2022/02/06 05:15:10;;;;;;;12.40;5.97;;;;;;;-1.99;75.68;100840.92;1459252;89;21532;-91
2022/02/06 05:17:55;;;;;;;13.25;4.53;;;;;;;-1.98;75.61;100834.01;1456304;89;22478;-89
2022/02/06 05:22:58;;;;;;;11.55;5.22;;;;;;;-1.97;77.04;100822.27;1459219;89;21563;-90
2022/02/06 05:28:01;;;;;;;8.30;4.90;;;;;;;-1.95;76.59;100823.52;1466894;89;21519;-90
2022/02/06 05:30:21;;;;;;;12.47;4.78;;;;;;;-1.96;76.94;100816.16;1457528;89;21577;-92
2022/02/06 05:35:23;;;;;;;8.05;4.67;;;;;;;-1.91;77.27;100820.73;1458589;89;21533;-91
2022/02/06 05:37:50;;;;;;;7.15;3.45;;;;;;;-1.86;76.84;100814.08;1431712;89;21511;-91
2022/02/06 05:40:17;;;;;;;8.33;3.08;;;;;;;-1.82;76.89;100817.77;1454365;89;21467;-90
2022/02/06 05:42:45;;;;;;;8.73;3.77;;;;;;;-1.77;77.10;100815.02;1463186;89;21526;-92
2022/02/06 05:45:12;;;;;;;9.18;4.37;;;;;;;-1.72;77.29;100823.93;1448283;89;22324;-91
2022/02/06 05:47:39;;;;;;;6.33;3.12;;;;;;;-1.68;77.16;100812.52;1455007;89;22494;-91
2022/02/06 05:50:08;;;;;;;6.78;3.75;;;;;;;-1.63;77.08;100814.02;1454693;89;21497;-91
2022/02/06 05:52:35;;;;;;;8.93;4.05;;;;;;;-1.56;76.85;100820.27;1458109;89;21444;-89
2022/02/06 05:55:03;;;;;;;11.43;4.42;;;;;;;-1.49;76.69;100814.78;1451416;89;21303;-89
2022/02/06 05:57:30;;;;;;;10.28;4.60;;;;;;;-1.43;76.66;100821.02;1452513;89;22333;-90
2022/02/06 05:59:57;;;;;;;9.45;3.95;;;;;;;-1.39;76.66;100821.27;1453272;89;21393;-89
2022/02/06 06:02:24;;;;;;;8.50;4.10;;;;;;;-1.33;76.48;100820.64;1460980;89;21253;-88
2022/02/06 06:04:53;;;;;;;10.15;3.72;;;;;;;-1.29;76.48;100823.06;1464572;89;21311;-89
2022/02/06 06:07:26;;;;;;;14.20;5.28;;;;;;;-1.27;76.37;100825.12;1450515;89;22302;-91
2022/02/06 06:09:53;;;;;;;11.18;4.22;;;;;;;-1.22;76.10;100821.89;1454853;89;21318;-91
2022/02/06 06:12:21;;;;;;;17.10;6.92;;;;;;;-1.19;76.04;100820.46;1446246;89;22308;-96
2022/02/06 06:14:48;;;;;;;39.88;15.35;;;;;;;-1.13;75.88;100815.47;1443087;89;22709;-96
2022/02/06 06:17:16;;;;;;;17.82;6.90;;;;;;;-1.07;75.78;100811.31;1440398;89;21393;-96
2022/02/06 06:19:48;;;;;;;37.78;13.30;;;;;;;-1.02;75.77;100811.14;1441873;89;21437;-95
2022/02/06 06:22:18;;;;;;;19.30;8.50;;;;;;;-0.97;75.57;100813.09;1453696;89;21948;-93
2022/02/06 06:24:45;;;;;;;24.30;7.97;;;;;;;-0.95;75.67;100821.22;1465266;89;21445;-96
2022/02/06 06:27:12;;;;;;;15.83;6.22;;;;;;;-0.92;75.68;100826.74;1453202;89;21489;-94
2022/02/06 06:29:39;;;;;;;12.13;5.45;;;;;;;-0.88;75.77;100826.15;1453565;89;22317;-94
2022/02/06 06:32:07;;;;;;;8.00;4.42;;;;;;;-0.85;75.59;100824.72;1451372;89;22250;-94
2022/02/06 06:34:35;;;;;;;11.40;3.85;;;;;;;-0.80;75.61;100820.18;1469525;89;21665;-94
2022/02/06 06:37:02;;;;;;;7.05;3.70;;;;;;;-0.80;75.78;100822.78;1467337;89;21334;-93
2022/02/06 06:39:41;;;;;;;9.93;4.40;;;;;;;-0.79;76.13;100823.16;1458691;89;21356;-92
2022/02/06 06:42:06;;;;;;;8.55;3.95;;;;;;;-0.74;75.93;100818.61;1450826;89;23213;-93
2022/02/06 06:44:34;;;;;;;12.18;5.17;;;;;;;-0.74;76.20;100821.21;1456978;89;21896;-94
2022/02/06 06:47:02;;;;;;;9.03;5.42;;;;;;;-0.69;76.18;100816.20;1452640;89;21503;-95
2022/02/06 06:49:29;;;;;;;27.58;9.73;;;;;;;-0.65;76.26;100818.67;1444910;89;21267;-96
2022/02/06 06:51:57;;;;;;;13.05;7.08;;;;;;;-0.60;76.05;100807.16;1472855;89;21385;-95
2022/02/06 06:54:25;;;;;;;11.70;4.92;;;;;;;-0.54;76.12;100804.75;1452242;89;21304;-96
2022/02/06 06:56:58;;;;;;;10.95;5.45;;;;;;;-0.47;76.19;100795.29;1462972;89;21275;-96
2022/02/06 06:59:29;;;;;;;15.93;9.15;;;;;;;-0.40;75.93;100802.81;1447866;89;21474;-96
2022/02/06 07:02:15;;;;;;;14.40;7.47;;;;;;;-0.39;76.42;100804.06;1461193;89;21511;-95
2022/02/06 07:04:22;;;;;;;14.63;7.75;;;;;;;-0.34;76.35;100794.30;1451566;89;21459;-93
2022/02/06 07:06:49;;;;;;;12.82;8.43;;;;;;;-0.26;76.40;100788.30;1456055;89;22302;-94
2022/02/06 07:09:16;;;;;;;16.48;7.20;;;;;;;-0.18;76.44;100785.33;1454153;89;21437;-92
2022/02/06 07:11:43;;;;;;;11.28;5.58;;;;;;;-0.11;76.44;100781.55;1449951;89;21400;-94
2022/02/06 07:14:10;;;;;;;10.88;5.53;;;;;;;-0.04;75.98;100780.80;1451502;89;21355;-94
2022/02/06 07:16:37;;;;;;;13.43;7.15;;;;;;;0.08;75.71;100787.19;1426038;89;22287;-94
2022/02/06 07:19:05;;;;;;;15.23;7.90;;;;;;;0.16;75.12;100782.47;1458257;89;21495;-95
2022/02/06 07:21:35;;;;;;;9.90;5.83;;;;;;;0.24;74.76;100775.14;1442155;89;21297;-96
2022/02/06 07:24:02;;;;;;;13.00;5.35;;;;;;;0.34;74.18;100773.77;1448151;89;22136;-94
2022/02/06 07:26:29;;;;;;;15.33;5.57;;;;;;;0.43;73.60;100769.44;1452081;89;21430;-94
2022/02/06 07:28:59;;;;;;;14.28;7.12;;;;;;;0.51;73.36;100768.21;1460005;89;22037;-94
2022/02/06 07:31:25;;;;;;;10.93;5.50;;;;;;;0.60;73.29;100770.36;1455662;89;22383;-96
2022/02/06 07:33:54;;;;;;;10.43;5.67;;;;;;;0.67;72.96;100775.66;1439714;89;21575;-95
2022/02/06 07:36:21;;;;;;;10.50;5.00;;;;;;;0.70;72.72;100782.02;1457651;89;22571;-93
2022/02/06 07:38:49;;;;;;;12.60;6.60;;;;;;;0.77;72.30;100769.52;1452736;89;21599;-95
2022/02/06 07:41:16;;;;;;;11.57;5.33;;;;;;;0.80;72.10;100766.30;1460001;89;22559;-91
2022/02/06 07:43:43;;;;;;;11.90;6.27;;;;;;;0.83;71.81;100759.63;1451548;89;22515;-91
2022/02/06 07:46:11;;;;;;;11.50;4.50;;;;;;;0.88;71.16;100764.16;1455273;89;21526;-92
2022/02/06 07:48:40;;;;;;;11.33;5.50;;;;;;;0.90;69.99;100749.30;1460427;89;22203;-91
2022/02/06 07:51:07;;;;;;;11.67;5.30;;;;;;;0.99;69.93;100751.05;1462021;89;22499;-93
2022/02/06 07:53:34;;;;;;;9.83;4.93;;;;;;;1.05;69.21;100751.57;1457219;89;21575;-92
2022/02/06 07:56:02;;;;;;;10.23;3.53;;;;;;;1.12;68.75;100752.09;1449833;89;21599;-92
2022/02/06 07:58:29;;;;;;;5.80;3.67;;;;;;;1.15;68.02;100744.58;1461421;89;21765;-91
2022/02/06 08:00:56;;;;;;;6.83;3.73;;;;;;;1.21;67.86;100746.42;1457898;89;21600;-91
2022/02/06 08:03:26;;;;;;;7.90;4.27;;;;;;;1.24;68.09;100755.39;1450490;89;21479;-92
2022/02/06 08:05:54;;;;;;;16.10;5.63;;;;;;;1.26;68.05;100753.98;1460434;89;21500;-91
2022/02/06 08:08:21;;;;;;;8.10;4.47;;;;;;;1.27;68.31;100747.41;1457245;89;21639;-95
2022/02/06 08:10:49;;;;;;;13.07;4.40;;;;;;;1.25;67.90;100757.53;1465174;89;21629;-94
2022/02/06 08:13:27;;;;;;;13.40;5.70;;;;;;;1.25;67.99;100755.75;1456072;89;21609;-94
2022/02/06 08:15:52;;;;;;;14.10;5.03;;;;;;;1.24;68.10;100755.39;1464097;89;21556;-96
2022/02/06 08:18:19;;;;;;;11.67;5.10;;;;;;;1.24;67.92;100755.39;1450313;89;21680;-94
2022/02/06 08:20:46;;;;;;;12.13;4.23;;;;;;;1.23;67.57;100761.50;1457462;89;22413;-96
2022/02/06 08:23:14;;;;;;;7.33;3.80;;;;;;;1.25;67.78;100766.19;1457809;89;21661;-89
2022/02/06 08:25:41;;;;;;;11.53;5.23;;;;;;;1.21;67.44;100762.06;1447707;89;21740;-94
2022/02/06 08:28:08;;;;;;;14.63;5.83;;;;;;;1.20;67.50;100751.23;1450343;89;21687;-95
2022/02/06 08:30:36;;;;;;;7.63;4.93;;;;;;;1.19;67.20;100758.69;1452948;89;21624;-94
2022/02/06 08:33:05;;;;;;;8.27;3.70;;;;;;;1.19;66.78;100755.24;1451556;88;21634;-79
2022/02/06 08:35:32;;;;;;;11.90;4.63;;;;;;;1.19;66.69;100759.98;1453862;89;21555;-79
2022/02/06 08:38:00;;;;;;;8.10;4.53;;;;;;;1.18;66.58;100758.31;1454360;89;21460;-80
2022/02/06 08:40:27;;;;;;;8.57;4.50;;;;;;;1.20;65.86;100754.31;1454577;89;21651;-79
2022/02/06 08:42:54;;;;;;;10.07;4.27;;;;;;;1.24;66.19;100745.42;1453423;89;21643;-80
2022/02/06 08:45:22;;;;;;;8.13;4.13;;;;;;;1.24;65.67;100763.67;1464097;89;21628;-81
2022/02/06 08:47:50;;;;;;;9.07;4.43;;;;;;;1.26;65.27;100750.08;1456994;89;21577;-80
2022/02/06 08:50:18;;;;;;;13.10;4.63;;;;;;;1.27;65.41;100743.48;1465746;89;21719;-80
2022/02/06 08:52:45;;;;;;;7.03;3.77;;;;;;;1.28;65.74;100746.94;1458442;89;21686;-80
2022/02/06 08:55:12;;;;;;;7.73;3.90;;;;;;;1.28;65.39;100752.98;1454837;89;21690;-80
2022/02/06 08:57:47;;;;;;;14.57;4.10;;;;;;;1.28;65.33;100747.77;1465543;89;22410;-81
2022/02/06 09:00:15;;;;;;;10.67;4.40;;;;;;;1.27;65.18;100753.92;1456722;89;21678;-80
2022/02/06 09:02:42;;;;;;;8.70;4.23;;;;;;;1.30;65.53;100747.70;1457106;89;21681;-80
2022/02/06 09:05:11;;;;;;;11.27;5.13;;;;;;;1.26;65.09;100748.77;1457302;89;21728;-80
2022/02/06 09:07:41;;;;;;;6.10;3.13;;;;;;;1.31;65.15;100750.69;1459894;89;21667;-81
2022/02/06 09:10:14;;;;;;;9.57;4.77;;;;;;;1.32;65.12;100749.31;1460933;89;21481;-82
2022/02/06 09:12:53;;;;;;;11.77;4.60;;;;;;;1.32;65.16;100757.57;1462989;89;22572;-82
2022/02/06 09:15:14;;;;;;;12.28;6.47;;;;;;;1.32;65.05;100741.48;1451428;89;21812;-82
2022/02/06 09:17:42;;;;;;;9.47;4.80;;;;;;;1.32;64.93;100738.88;1433750;89;22471;-81
2022/02/06 09:20:12;;;;;;;9.60;4.10;;;;;;;1.31;64.82;100742.39;1464143;89;22763;-82
2022/02/06 09:22:40;;;;;;;9.40;4.83;;;;;;;1.29;64.73;100741.63;1453877;89;21789;-82
2022/02/06 09:25:10;;;;;;;11.23;5.70;;;;;;;1.28;64.51;100734.73;1451572;89;21853;-82
2022/02/06 09:27:39;;;;;;;9.50;4.40;;;;;;;1.27;64.40;100730.45;1442092;89;21614;-82
2022/02/06 09:30:10;;;;;;;10.83;5.00;;;;;;;1.27;64.55;100746.56;1457966;89;23599;-82
2022/02/06 09:37:35;;;;;;;34.67;17.30;;;;;;;1.34;64.72;100742.23;1456048;89;21666;-84
2022/02/06 09:40:13;;;;;;;10.07;5.23;;;;;;;1.35;64.88;100742.63;1440060;89;21596;-82
2022/02/06 09:42:45;;;;;;;14.07;5.73;;;;;;;1.35;64.49;100745.23;1445671;89;21716;-82
2022/02/06 09:45:14;;;;;;;10.03;5.73;;;;;;;1.37;64.41;100733.41;1452089;89;22390;-81
2022/02/06 09:47:43;;;;;;;12.60;5.00;;;;;;;1.32;63.86;100731.49;1450682;89;21709;-82
2022/02/06 09:50:10;;;;;;;10.87;5.00;;;;;;;1.31;63.82;100732.43;1448769;89;21553;-83
2022/02/06 09:52:39;;;;;;;12.10;4.47;;;;;;;1.29;63.97;100723.37;1450444;89;21678;-82
2022/02/06 09:55:24;;;;;;;13.53;6.30;;;;;;;1.30;63.85;100720.33;1450276;89;21605;-83
2022/02/06 09:57:54;;;;;;;17.17;5.70;;;;;;;1.30;63.84;100722.47;1453308;89;21745;-82
2022/02/06 10:00:29;;;;;;;10.87;5.27;;;;;;;1.34;64.23;100722.67;1453339;89;22577;-83
2022/02/06 10:03:02;;;;;;;9.70;5.07;;;;;;;1.37;63.93;100716.92;1444012;89;21878;-83
2022/02/06 10:05:35;;;;;;;10.23;4.93;;;;;;;1.39;63.70;100714.61;1459403;89;21822;-83
2022/02/06 10:08:31;;;;;;;10.73;4.60;;;;;;;1.42;63.86;100705.78;1450676;89;21513;-82
2022/02/06 10:11:16;;;;;;;10.50;4.67;;;;;;;1.48;63.57;100706.76;1432154;88;21711;-81
2022/02/06 10:13:46;;;;;;;9.80;5.03;;;;;;;1.55;63.43;100710.70;1475538;88;23507;-81
2022/02/06 10:16:16;;;;;;;8.17;4.67;;;;;;;1.60;63.38;100706.55;1473962;88;21818;-81
2022/02/06 10:18:45;;;;;;;9.33;5.33;;;;;;;1.66;63.35;100707.52;1458870;88;21456;-81
2022/02/06 10:21:17;;;;;;;12.03;6.07;;;;;;;1.72;63.39;100702.80;1498528;89;21577;-81
2022/02/06 10:23:53;;;;;;;18.30;6.15;;;;;;;1.77;63.23;100704.70;1518766;90;21325;-81
2022/02/06 10:26:30;;;;;;;14.77;7.00;;;;;;;1.86;63.62;100700.73;1485689;90;21473;-82
2022/02/06 10:31:50;;;;;;;10.80;6.33;;;;;;;1.95;63.03;100688.47;1524452;90;21499;-82
2022/02/06 10:34:27;;;;;;;11.83;4.20;;;;;;;2.01;63.19;100692.07;1456945;90;22863;-84
2022/02/06 10:37:24;;;;;;;11.23;5.50;;;;;;;2.02;62.69;100675.94;1425499;90;21493;-82
2022/02/06 10:40:05;;;;;;;15.17;7.67;;;;;;;2.07;62.97;100672.58;1435115;90;22069;-82
2022/02/06 10:42:38;;;;;;;15.15;5.75;;;;;;;2.11;62.97;100644.55;1437891;90;23652;-82
2022/02/06 10:45:25;;;;;;;13.13;6.63;;;;;;;2.11;63.25;100648.46;1436987;90;21739;-82
2022/02/06 10:47:54;;;;;;;15.87;7.40;;;;;;;2.15;63.30;100644.73;1445103;89;21582;-83
2022/02/06 10:50:28;;;;;;;13.53;6.90;;;;;;;2.20;63.34;100634.87;1446423;90;21642;-82
2022/02/06 10:53:41;;;;;;;15.90;6.67;;;;;;;2.22;63.06;100635.16;1454312;90;21645;-82
2022/02/06 10:56:08;;;;;;;12.57;6.00;;;;;;;2.30;63.34;100632.55;1515400;88;21661;-83
2022/02/06 10:58:36;;;;;;;27.57;13.17;;;;;;;2.36;63.08;100622.61;1521717;90;21314;-83
2022/02/06 11:01:09;;;;;;;21.37;8.83;;;;;;;2.39;63.03;100616.36;1423434;90;21755;-82
2022/02/06 11:03:39;;;;;;;19.97;9.13;;;;;;;2.40;62.87;100611.50;1444435;90;21677;-83
2022/02/06 11:06:42;;;;;;;12.53;7.40;;;;;;;2.47;62.97;100604.52;1443819;90;21631;-83
2022/02/06 11:08:56;;;;;;;13.80;6.20;;;;;;;2.44;62.49;100595.53;1439760;90;22096;-82
2022/02/06 11:11:33;;;;;;;16.17;7.30;;;;;;;2.53;62.82;100596.76;1446720;89;21755;-83
2022/02/06 11:14:13;;;;;;;10.13;5.37;;;;;;;2.62;62.69;100588.39;1449663;90;22179;-82
2022/02/06 11:16:37;;;;;;;10.80;4.87;;;;;;;2.65;62.29;100579.06;1438575;90;21874;-83
2022/02/06 11:19:08;;;;;;;12.65;5.35;;;;;;;2.68;61.87;100571.03;1434565;89;21868;-82
2022/02/06 11:21:34;;;;;;;8.47;4.80;;;;;;;2.79;61.96;100573.44;1439622;89;21414;-82
2022/02/06 11:24:04;;;;;;;9.53;5.53;;;;;;;2.81;61.19;100557.20;1443691;89;21773;-83
2022/02/06 11:26:30;;;;;;;11.33;5.00;;;;;;;2.83;61.37;100545.72;1443776;90;22756;-81
2022/02/06 11:29:02;;;;;;;12.33;6.00;;;;;;;3.07;60.90;100550.34;1448309;90;22160;-83
2022/02/06 11:31:29;;;;;;;15.23;5.93;;;;;;;3.07;60.90;100550.34;1443536;90;21867;-82
2022/02/06 11:33:56;;;;;;;6.70;4.33;;;;;;;3.16;60.99;100533.62;1433180;90;21815;-82
2022/02/06 11:43:42;;;;;;;14.50;5.40;;;;;;;3.27;60.58;100541.23;1441356;90;21712;-83
2022/02/06 11:45:13;;;;;;;16.48;7.62;;;;;;;3.34;60.53;100530.77;1448365;89;23092;-81
2022/02/06 11:47:54;;;;;;;10.60;5.47;;;;;;;3.41;60.79;100517.64;1442970;89;21355;-82
2022/02/06 11:50:23;;;;;;;20.40;8.93;;;;;;;3.42;60.69;100508.02;1440018;89;22075;-86
2022/02/06 11:53:01;;;;;;;13.63;7.63;;;;;;;3.45;60.97;100507.33;1457039;89;21488;-86
2022/02/06 11:55:39;;;;;;;9.47;6.10;;;;;;;3.48;60.51;100508.47;1396078;90;22820;-81
2022/02/06 11:58:34;;;;;;;15.03;6.43;;;;;;;3.50;60.81;100500.03;1447815;90;22697;-81
2022/02/06 12:01:14;;;;;;;14.90;7.57;;;;;;;3.52;60.68;100493.40;1440215;88;21860;-82
2022/02/06 12:03:59;;;;;;;19.83;7.40;;;;;;;3.44;60.70;100479.98;1442737;89;21904;-82
2022/02/06 12:06:47;;;;;;;18.50;8.90;;;;;;;3.44;60.70;100479.98;1444308;90;22299;-82
2022/02/06 12:09:18;;;;;;;17.93;7.53;;;;;;;3.40;60.77;100476.73;1444285;90;22150;-82
2022/02/06 12:12:13;;;;;;;16.07;6.97;;;;;;;3.42;61.04;100475.30;1446999;90;22126;-81
2022/02/06 12:15:07;;;;;;;14.93;6.87;;;;;;;3.45;61.01;100467.25;1443761;90;21435;-81
2022/02/06 12:20:11;;;;;;;18.10;6.70;;;;;;;3.51;61.04;100463.78;1428304;91;22039;-81
2022/02/06 12:22:49;;;;;;;12.87;6.57;;;;;;;3.54;61.00;100454.42;1420671;91;23324;-82
2022/02/06 12:25:34;;;;;;;18.27;8.17;;;;;;;3.58;60.98;100453.27;1408005;93;22123;-81
2022/02/06 12:28:21;;;;;;;15.83;8.03;;;;;;;3.73;60.75;100436.16;1403850;93;22329;-82
2022/02/06 12:30:56;;;;;;;17.37;8.43;;;;;;;3.73;60.75;100436.16;1400921;93;22271;-82
2022/02/06 12:33:36;;;;;;;22.53;11.97;;;;;;;3.85;61.10;100427.78;1483576;93;22061;-81
2022/02/06 12:38:44;;;;;;;14.50;7.23;;;;;;;3.94;60.30;100426.86;1483483;93;22065;-81
2022/02/06 12:41:24;;;;;;;19.73;10.13;;;;;;;4.00;60.30;100440.84;1325675;94;23081;-81
2022/02/06 12:43:55;;;;;;;20.40;7.77;;;;;;;3.99;60.17;100433.91;1502659;91;23635;-83
2022/02/06 12:46:24;;;;;;;13.10;7.70;;;;;;;4.01;59.90;100421.56;1410968;91;22373;-81
2022/02/06 12:48:54;;;;;;;17.47;9.00;;;;;;;4.00;59.82;100415.97;1425923;91;22232;-81
2022/02/06 12:51:31;;;;;;;16.42;9.20;;;;;;;4.02;59.96;100421.91;1410931;91;22766;-81
2022/02/06 12:54:08;;;;;;;12.87;6.73;;;;;;;4.07;60.33;100418.52;1424419;91;21428;-81
2022/02/06 12:56:39;;;;;;;12.37;6.33;;;;;;;4.07;60.08;100404.11;1422539;91;22141;-81
2022/02/06 12:59:07;;;;;;;12.90;6.75;;;;;;;4.05;60.28;100399.44;1426208;91;22152;-81
2022/02/06 13:01:42;;;;;;;13.10;7.33;;;;;;;4.08;60.62;100389.22;1419264;91;21406;-81
2022/02/06 13:04:16;;;;;;;12.13;5.77;;;;;;;4.09;60.88;100380.92;1470610;93;22032;-80
2022/02/06 13:06:49;;;;;;;11.67;7.37;;;;;;;4.06;60.88;100369.70;1393553;93;22915;-80
2022/02/06 13:09:32;;;;;;;12.00;6.80;;;;;;;4.07;60.96;100367.44;1407464;93;23026;-80
2022/02/06 13:15:09;;;;;;;11.63;6.83;;;;;;;4.15;60.96;100360.84;1483522;93;21943;-80
2022/02/06 13:23:11;;;;;;;13.50;5.83;;;;;;;4.32;60.80;100348.69;1331749;94;21450;-80
2022/02/06 13:28:17;;;;;;;9.97;6.10;;;;;;;4.41;60.55;100349.34;1379554;94;22312;-81
2022/02/06 13:30:56;;;;;;;9.90;5.63;;;;;;;4.48;60.48;100353.17;1366981;93;24356;-80
2022/02/06 13:38:59;;;;;;;11.20;6.10;;;;;;;4.84;60.40;100327.04;1379339;96;21431;-80
2022/02/06 13:41:31;;;;;;;11.10;7.60;;;;;;;4.87;59.98;100330.27;1310173;95;23225;-80
2022/02/06 13:43:57;;;;;;;15.20;7.30;;;;;;;4.89;60.32;100317.88;1451489;95;21424;-80
2022/02/06 13:46:33;;;;;;;13.63;7.33;;;;;;;4.77;59.87;100309.59;1416926;94;21489;-81
2022/02/06 13:49:02;;;;;;;18.47;9.27;;;;;;;4.77;59.87;100309.59;1382585;93;21402;-82
2022/02/06 13:51:41;;;;;;;13.83;7.70;;;;;;;4.73;59.63;100296.36;1409015;93;22955;-80
2022/02/06 13:54:07;;;;;;;13.43;6.70;;;;;;;4.73;59.63;100296.36;1390146;93;21467;-81
2022/02/06 13:56:36;;;;;;;14.05;7.17;;;;;;;4.72;59.95;100301.25;1334713;93;21942;-81
2022/02/06 13:59:12;;;;;;;16.37;7.33;;;;;;;4.82;60.32;100298.30;1391083;93;21277;-81
2022/02/06 14:01:43;;;;;;;16.20;8.13;;;;;;;4.82;60.32;100298.30;1493253;91;21266;-81
2022/02/06 14:04:31;;;;;;;9.40;5.53;;;;;;;4.89;60.04;100291.66;1442143;92;22132;-82
2022/02/06 14:07:16;;;;;;;11.77;6.47;;;;;;;4.95;59.74;100291.20;1353866;94;22747;-81
2022/02/06 14:09:49;;;;;;;11.60;6.43;;;;;;;5.23;59.27;100273.35;1436133;94;21518;-82
2022/02/06 14:12:20;;;;;;;21.37;8.33;;;;;;;5.23;59.27;100273.35;1354672;94;21282;-84
2022/02/06 14:14:54;;;;;;;16.73;7.27;;;;;;;5.51;59.38;100268.62;1449242;94;21320;-81
2022/02/06 14:17:31;;;;;;;11.00;6.33;;;;;;;5.80;57.49;100264.55;1415468;93;21362;-82